createdAt,value
2019-02-27T00:00:13.648Z,4.90
2019-02-27T00:02:42.216Z,4.80
2019-02-27T00:05:10.912Z,4.80
2019-02-27T00:07:39.597Z,4.70
2019-02-27T00:10:08.600Z,4.50
2019-02-27T00:12:37.196Z,4.60
2019-02-27T00:15:07.296Z,4.70
2019-02-27T00:17:35.896Z,4.50
2019-02-27T00:20:06.201Z,4.50
2019-02-27T00:22:34.879Z,4.60
2019-02-27T00:25:04.122Z,4.60
2019-02-27T00:27:32.770Z,4.60
2019-02-27T00:30:04.398Z,4.40
2019-02-27T00:32:31.578Z,4.40
2019-02-27T00:35:00.288Z,4.40
2019-02-27T00:37:28.845Z,4.40
2019-02-27T00:39:57.408Z,4.40
2019-02-27T00:42:33.264Z,4.50
2019-02-27T00:44:56.214Z,4.40
2019-02-27T00:47:24.823Z,4.50
2019-02-27T00:49:53.377Z,4.50
2019-02-27T00:52:21.992Z,4.40
2019-02-27T00:54:50.556Z,4.30
2019-02-27T00:57:20.894Z,4.40
2019-02-27T00:59:49.893Z,4.20
2019-02-27T01:02:20.243Z,4.20
2019-02-27T01:04:48.708Z,4.20
2019-02-27T01:07:20.237Z,4.30
2019-02-27T01:09:47.617Z,4.20
2019-02-27T01:12:16.220Z,4.10
2019-02-27T01:14:44.785Z,4.20
2019-02-27T01:17:13.386Z,4.20
2019-02-27T01:19:42.841Z,4.10
2019-02-27T01:22:11.635Z,4.00
2019-02-27T01:24:40.199Z,3.90
2019-02-27T01:27:08.801Z,4.00
2019-02-27T01:29:37.364Z,4.00
2019-02-27T01:32:05.966Z,4.00
2019-02-27T01:34:34.521Z,3.70
2019-02-27T01:37:03.116Z,3.60
2019-02-27T01:39:31.688Z,3.60
2019-02-27T01:42:00.291Z,3.80
2019-02-27T01:44:28.848Z,3.80
2019-02-27T01:47:01.515Z,3.70
2019-02-27T01:49:27.716Z,3.70
2019-02-27T01:51:56.315Z,3.60
2019-02-27T01:54:24.877Z,3.70
2019-02-27T01:56:53.532Z,3.80
2019-02-27T01:59:22.091Z,3.90
2019-02-27T02:01:50.649Z,3.70
2019-02-27T02:04:20.303Z,3.70
2019-02-27T02:06:49.587Z,3.60
2019-02-27T02:09:34.983Z,3.60
2019-02-27T02:12:09.903Z,3.60
2019-02-27T02:14:54.109Z,3.70
2019-02-27T02:17:41.609Z,3.70
2019-02-27T02:20:32.500Z,3.70
2019-02-27T02:23:04.181Z,3.60
2019-02-27T02:25:41.452Z,3.50
2019-02-27T02:28:29.552Z,3.60
2019-02-27T02:31:18.340Z,3.70
2019-02-27T02:34:06.209Z,3.80
2019-02-27T02:36:37.900Z,3.70
2019-02-27T02:39:21.399Z,3.70
2019-02-27T02:42:09.180Z,3.60
2019-02-27T02:45:07.717Z,3.60
2019-02-27T02:47:58.416Z,3.50
2019-02-27T02:50:38.715Z,3.50
2019-02-27T02:53:28.498Z,3.40
2019-02-27T02:56:02.791Z,3.40
2019-02-27T02:58:40.065Z,3.30
2019-02-27T03:01:17.535Z,3.20
2019-02-27T03:03:54.913Z,3.20
2019-02-27T03:06:35.114Z,3.20
2019-02-27T03:09:20.409Z,3.20
2019-02-27T03:12:00.589Z,3.20
2019-02-27T03:14:38.200Z,3.10
2019-02-27T03:17:35.245Z,3.00
2019-02-27T03:20:18.541Z,3.00
2019-02-27T03:22:52.849Z,3.00
2019-02-27T03:25:40.256Z,2.70
2019-02-27T03:28:21.365Z,2.90
2019-02-27T03:30:56.119Z,2.80
2019-02-27T03:33:42.701Z,2.90
2019-02-27T03:36:14.371Z,2.90
2019-02-27T03:38:59.251Z,2.80
2019-02-27T03:41:36.663Z,2.90
2019-02-27T03:44:20.759Z,2.80
2019-02-27T03:47:07.763Z,2.90
2019-02-27T03:49:40.793Z,2.70
2019-02-27T03:52:36.090Z,2.80
2019-02-27T03:55:31.881Z,2.80
2019-02-27T03:58:30.034Z,2.60
2019-02-27T04:00:59.271Z,2.60
2019-02-27T04:03:33.492Z,2.60
2019-02-27T04:06:20.379Z,2.70
2019-02-27T04:08:57.291Z,2.80
2019-02-27T04:11:26.046Z,2.70
2019-02-27T04:13:54.742Z,2.60
2019-02-27T04:16:29.004Z,2.60
2019-02-27T04:18:53.777Z,2.60
2019-02-27T04:21:25.371Z,2.70
2019-02-27T04:23:52.627Z,2.60
2019-02-27T04:26:21.242Z,2.70
2019-02-27T04:28:49.861Z,2.70
2019-02-27T04:31:18.473Z,2.60
2019-02-27T04:33:47.049Z,2.60
2019-02-27T04:36:15.615Z,2.70
2019-02-27T04:38:44.178Z,2.70
2019-02-27T04:41:12.764Z,2.60
2019-02-27T04:43:41.360Z,2.60
2019-02-27T04:46:09.979Z,2.60
2019-02-27T04:48:38.580Z,2.30
2019-02-27T04:51:07.136Z,2.40
2019-02-27T04:53:35.734Z,2.50
2019-02-27T04:56:04.356Z,2.60
2019-02-27T04:58:32.960Z,2.60
2019-02-27T05:01:01.509Z,2.60
2019-02-27T05:03:30.108Z,2.40
2019-02-27T05:05:58.661Z,2.40
2019-02-27T05:08:27.797Z,2.10
2019-02-27T05:10:56.376Z,2.20
2019-02-27T05:13:25.045Z,2.30
2019-02-27T05:15:53.672Z,2.30
2019-02-27T05:18:22.359Z,2.30
2019-02-27T05:20:50.920Z,2.30
2019-02-27T05:23:19.517Z,2.20
2019-02-27T05:25:48.134Z,2.30
2019-02-27T05:28:16.720Z,2.20
2019-02-27T05:30:45.925Z,2.40
2019-02-27T05:33:14.565Z,2.40
2019-02-27T05:35:43.120Z,2.20
2019-02-27T05:38:11.842Z,2.10
2019-02-27T05:40:40.460Z,2.20
2019-02-27T05:43:13.240Z,2.20
2019-02-27T05:45:39.262Z,1.80
2019-02-27T05:48:07.876Z,2.00
2019-02-27T05:50:36.435Z,2.20
2019-02-27T05:53:05.095Z,2.20
2019-02-27T05:55:33.724Z,2.30
2019-02-27T05:58:02.345Z,2.20
2019-02-27T06:00:30.963Z,2.20
2019-02-27T06:02:59.642Z,2.30
2019-02-27T06:05:28.193Z,2.30
2019-02-27T06:07:56.789Z,2.20
2019-02-27T06:10:25.346Z,1.90
2019-02-27T06:12:53.951Z,1.90
2019-02-27T06:15:22.506Z,2.00
2019-02-27T06:17:51.098Z,2.10
2019-02-27T06:20:19.648Z,2.20
2019-02-27T06:22:48.261Z,2.10
2019-02-27T06:25:21.499Z,2.00
2019-02-27T06:27:48.266Z,2.00
2019-02-27T06:30:18.501Z,2.20
2019-02-27T06:32:47.048Z,2.30
2019-02-27T06:35:16.579Z,2.20
2019-02-27T06:37:45.195Z,2.20
2019-02-27T06:40:18.557Z,1.80
2019-02-27T06:42:53.361Z,1.80
2019-02-27T06:45:21.642Z,2.00
2019-02-27T06:47:52.110Z,2.10
2019-02-27T06:50:25.212Z,2.20
2019-02-27T06:52:53.250Z,2.10
2019-02-27T06:55:27.992Z,2.20
2019-02-27T06:57:58.433Z,2.30
2019-02-27T07:00:27.322Z,2.30
2019-02-27T07:02:56.232Z,2.30
2019-02-27T07:05:24.768Z,2.20
2019-02-27T07:07:53.320Z,2.40
2019-02-27T07:10:21.903Z,2.50
2019-02-27T07:12:54.440Z,2.50
2019-02-27T07:15:21.928Z,2.60
2019-02-27T07:17:50.677Z,2.50
2019-02-27T07:20:23.797Z,2.50
2019-02-27T07:22:49.599Z,2.60
2019-02-27T07:25:18.833Z,2.80
2019-02-27T07:27:47.423Z,2.80
2019-02-27T07:30:23.729Z,2.90
2019-02-27T07:32:52.113Z,3.00
2019-02-27T07:35:25.618Z,3.10
2019-02-27T07:37:51.277Z,3.10
2019-02-27T07:40:20.640Z,3.20
2019-02-27T07:42:49.266Z,3.30
2019-02-27T07:45:22.678Z,3.40
2019-02-27T07:47:51.648Z,3.50
2019-02-27T07:50:21.090Z,3.60
2019-02-27T07:52:51.835Z,3.70
2019-02-27T07:55:22.916Z,3.80
2019-02-27T07:57:50.222Z,3.90
2019-02-27T08:00:20.465Z,4.00
2019-02-27T08:02:49.144Z,4.10
2019-02-27T08:05:17.844Z,4.20
2019-02-27T08:07:49.048Z,4.30
2019-02-27T08:10:21.477Z,4.50
2019-02-27T08:12:50.310Z,4.60
2019-02-27T08:15:19.765Z,4.80
2019-02-27T08:17:48.785Z,5.00
2019-02-27T08:20:20.987Z,5.10
2019-02-27T08:22:49.658Z,5.10
2019-02-27T08:25:18.913Z,5.30
2019-02-27T08:27:47.710Z,5.40
2019-02-27T08:30:25.031Z,5.50
2019-02-27T08:32:53.728Z,5.60
2019-02-27T08:35:22.408Z,5.70
2019-02-27T08:37:50.973Z,5.80
2019-02-27T08:40:24.135Z,6.10
2019-02-27T08:42:49.937Z,6.20
2019-02-27T08:45:20.588Z,6.50
2019-02-27T08:47:49.452Z,6.50
2019-02-27T08:50:19.185Z,6.60
2019-02-27T08:52:50.936Z,6.70
2019-02-27T08:55:22.326Z,6.70
2019-02-27T08:57:49.965Z,6.90
2019-02-27T09:00:23.469Z,6.90
2019-02-27T09:02:52.118Z,7.10
2019-02-27T09:05:21.085Z,7.30
2019-02-27T09:07:49.888Z,7.50
2019-02-27T09:10:23.244Z,7.80
2019-02-27T09:12:51.878Z,7.80
2019-02-27T09:15:20.637Z,8.10
2019-02-27T09:17:49.275Z,8.30
2019-02-27T09:20:19.770Z,8.50
2019-02-27T09:22:49.297Z,8.50
2019-02-27T09:25:18.043Z,8.60
2019-02-27T09:27:46.596Z,8.80
2019-02-27T09:30:20.753Z,9.00
2019-02-27T09:32:49.298Z,9.10
2019-02-27T09:35:18.032Z,9.20
2019-02-27T09:37:48.473Z,9.40
2019-02-27T09:40:20.120Z,9.50
2019-02-27T09:42:50.285Z,9.70
2019-02-27T09:45:31.119Z,9.90
2019-02-27T09:48:00.657Z,10.20
2019-02-27T09:50:35.341Z,10.30
2019-02-27T09:53:04.428Z,10.60
2019-02-27T09:55:33.186Z,10.90
2019-02-27T09:58:01.964Z,11.00
2019-02-27T10:00:33.399Z,11.20
2019-02-27T10:03:02.303Z,11.40
2019-02-27T10:05:31.034Z,11.50
2019-02-27T10:07:59.843Z,11.70
2019-02-27T10:10:28.572Z,11.80
2019-02-27T10:12:57.200Z,11.80
2019-02-27T10:15:27.513Z,12.00
2019-02-27T10:17:56.216Z,12.20
2019-02-27T10:20:24.811Z,12.40
2019-02-27T10:22:54.058Z,12.50
2019-02-27T10:25:22.702Z,12.60
2019-02-27T10:27:51.336Z,12.70
2019-02-27T10:30:20.080Z,12.90
2019-02-27T10:32:48.620Z,13.10
2019-02-27T10:35:17.249Z,13.30
2019-02-27T10:37:50.332Z,13.30
2019-02-27T10:40:24.048Z,13.40
2019-02-27T10:42:52.613Z,13.50
2019-02-27T10:45:22.561Z,13.70
2019-02-27T10:47:51.393Z,13.90
2019-02-27T10:50:20.920Z,13.90
2019-02-27T10:52:50.211Z,14.10
2019-02-27T10:55:20.199Z,14.10
2019-02-27T10:57:48.792Z,14.30
2019-02-27T11:00:27.060Z,14.30
2019-02-27T11:02:55.805Z,14.60
2019-02-27T11:05:27.793Z,14.80
2019-02-27T11:07:56.545Z,14.70
2019-02-27T11:10:25.548Z,14.90
2019-02-27T11:12:54.177Z,15.00
2019-02-27T11:15:23.392Z,15.00
2019-02-27T11:17:52.236Z,15.00
2019-02-27T11:20:21.973Z,15.10
2019-02-27T11:22:50.997Z,15.20
2019-02-27T11:25:32.073Z,15.30
2019-02-27T11:28:02.378Z,15.50
2019-02-27T11:30:37.090Z,15.80
2019-02-27T11:33:05.745Z,15.90
2019-02-27T11:35:34.441Z,16.00
2019-02-27T11:38:03.135Z,16.00
2019-02-27T11:40:31.665Z,15.90
2019-02-27T11:43:01.088Z,16.00
2019-02-27T11:45:30.020Z,16.10
2019-02-27T11:47:58.613Z,16.30
2019-02-27T11:50:27.237Z,16.40
2019-02-27T11:52:55.832Z,16.60
2019-02-27T11:55:24.688Z,16.60
2019-02-27T11:57:53.396Z,16.50
2019-02-27T12:00:28.534Z,16.60
2019-02-27T12:02:57.645Z,16.80
2019-02-27T12:05:30.817Z,16.70
2019-02-27T12:07:57.893Z,16.70
2019-02-27T12:10:30.024Z,16.70
2019-02-27T12:13:00.792Z,16.90
2019-02-27T12:15:28.881Z,17.10
2019-02-27T12:18:00.756Z,17.30
2019-02-27T12:20:27.817Z,17.50
2019-02-27T12:22:56.403Z,17.50
2019-02-27T12:25:28.982Z,17.50
2019-02-27T12:27:58.435Z,17.30
2019-02-27T12:30:28.728Z,17.30
2019-02-27T12:32:57.466Z,17.30
2019-02-27T12:35:28.757Z,17.30
2019-02-27T12:37:57.408Z,17.50
2019-02-27T12:40:26.961Z,17.70
2019-02-27T12:42:56.595Z,17.70
2019-02-27T12:45:30.046Z,17.80
2019-02-27T12:47:58.763Z,17.80
2019-02-27T12:50:31.146Z,17.70
2019-02-27T12:52:58.841Z,17.70
2019-02-27T12:55:28.273Z,17.70
2019-02-27T12:57:56.919Z,17.80
2019-02-27T13:00:30.493Z,17.80
2019-02-27T13:02:59.289Z,17.90
2019-02-27T13:05:28.886Z,17.80
2019-02-27T13:07:57.598Z,17.80
2019-02-27T13:10:26.992Z,17.80
2019-02-27T13:12:55.718Z,17.80
2019-02-27T13:15:26.753Z,18.00
2019-02-27T13:17:57.407Z,17.90
2019-02-27T13:20:30.963Z,18.00
2019-02-27T13:23:04.070Z,18.10
2019-02-27T13:25:30.465Z,18.20
2019-02-27T13:27:59.157Z,18.20
2019-02-27T13:30:29.520Z,18.10
2019-02-27T13:33:02.001Z,18.30
2019-02-27T13:35:32.115Z,18.30
2019-02-27T13:38:00.745Z,18.20
2019-02-27T13:40:35.227Z,18.20
2019-02-27T13:43:01.356Z,18.20
2019-02-27T13:45:32.240Z,18.20
2019-02-27T13:48:04.817Z,18.30
2019-02-27T13:50:31.140Z,18.10
2019-02-27T13:52:59.708Z,18.10
2019-02-27T13:55:28.396Z,18.10
2019-02-27T13:57:59.195Z,18.20
2019-02-27T14:00:34.586Z,18.00
2019-02-27T14:03:03.279Z,18.00
2019-02-27T14:05:35.122Z,18.00
2019-02-27T14:08:02.347Z,18.00
2019-02-27T14:10:31.996Z,18.10
2019-02-27T14:13:00.616Z,18.00
2019-02-27T14:15:31.382Z,18.20
2019-02-27T14:17:59.588Z,18.20
2019-02-27T14:20:29.140Z,18.20
2019-02-27T14:22:58.256Z,18.30
2019-02-27T14:25:32.675Z,18.40
2019-02-27T14:27:59.031Z,18.40
2019-02-27T14:30:47.145Z,18.40
2019-02-27T14:33:15.667Z,18.40
2019-02-27T14:35:44.393Z,18.30
2019-02-27T14:38:12.924Z,18.20
2019-02-27T14:40:41.551Z,18.10
2019-02-27T14:43:10.240Z,18.20
2019-02-27T14:45:40.828Z,18.20
2019-02-27T14:48:09.191Z,18.20
2019-02-27T14:50:40.030Z,18.20
2019-02-27T14:53:08.803Z,18.30
2019-02-27T14:55:37.574Z,18.40
2019-02-27T14:58:06.264Z,18.40
2019-02-27T15:00:39.851Z,18.30
2019-02-27T15:03:06.971Z,18.40
2019-02-27T15:05:36.782Z,18.50
2019-02-27T15:08:05.895Z,18.40
2019-02-27T15:10:34.503Z,18.40
2019-02-27T15:13:03.061Z,18.50
2019-02-27T15:15:32.550Z,18.50
2019-02-27T15:18:01.195Z,18.50
2019-02-27T15:20:30.533Z,18.60
2019-02-27T15:22:59.232Z,18.60
2019-02-27T15:25:28.111Z,18.60
2019-02-27T15:27:58.677Z,18.50
2019-02-27T15:30:33.664Z,18.60
2019-02-27T15:33:05.063Z,18.60
2019-02-27T15:35:32.549Z,18.50
2019-02-27T15:38:01.106Z,18.30
2019-02-27T15:40:30.456Z,18.20
2019-02-27T15:42:59.154Z,18.30
2019-02-27T15:45:28.753Z,18.30
2019-02-27T15:47:58.532Z,18.30
2019-02-27T15:50:33.315Z,18.30
2019-02-27T15:53:01.908Z,18.10
2019-02-27T15:55:34.368Z,18.10
2019-02-27T15:58:00.876Z,18.20
2019-02-27T16:00:29.760Z,18.20
2019-02-27T16:03:01.140Z,18.10
2019-02-27T16:05:31.245Z,18.10
2019-02-27T16:08:00.139Z,17.90
2019-02-27T16:10:29.129Z,17.80
2019-02-27T16:13:01.325Z,17.70
2019-02-27T16:15:30.054Z,17.80
2019-02-27T16:17:58.708Z,17.80
2019-02-27T16:20:28.010Z,17.80
2019-02-27T16:22:56.925Z,17.80
2019-02-27T16:25:26.815Z,17.60
2019-02-27T16:27:55.566Z,17.40
2019-02-27T16:30:31.271Z,17.20
2019-02-27T16:32:57.498Z,17.20
2019-02-27T16:35:26.173Z,17.10
2019-02-27T16:37:57.555Z,16.70
2019-02-27T16:40:26.631Z,16.60
2019-02-27T16:42:55.448Z,16.30
2019-02-27T16:45:37.932Z,16.00
2019-02-27T16:48:06.828Z,15.70
2019-02-27T16:50:35.395Z,15.50
2019-02-27T16:53:04.177Z,15.50
2019-02-27T16:55:36.056Z,15.40
2019-02-27T16:58:03.364Z,15.30
2019-02-27T17:00:34.127Z,14.80
2019-02-27T17:03:02.785Z,14.60
2019-02-27T17:05:31.967Z,14.40
2019-02-27T17:08:02.434Z,14.30
2019-02-27T17:10:36.169Z,14.10
2019-02-27T17:13:05.169Z,14.00
2019-02-27T17:15:35.757Z,13.80
2019-02-27T17:18:04.248Z,13.80
2019-02-27T17:20:32.810Z,13.70
2019-02-27T17:23:07.571Z,13.60
2019-02-27T17:25:31.842Z,13.40
2019-02-27T17:28:00.529Z,13.20
2019-02-27T17:30:37.702Z,13.00
2019-02-27T17:33:05.243Z,13.00
2019-02-27T17:35:34.109Z,13.00
2019-02-27T17:38:03.197Z,12.90
2019-02-27T17:40:36.618Z,12.70
2019-02-27T17:43:02.390Z,12.60
2019-02-27T17:45:31.084Z,12.50
2019-02-27T17:47:59.832Z,12.30
2019-02-27T17:50:31.594Z,12.10
2019-02-27T17:52:58.803Z,12.00
2019-02-27T17:55:27.380Z,11.90
2019-02-27T17:57:58.440Z,11.70
2019-02-27T18:00:33.173Z,11.60
2019-02-27T18:03:04.956Z,11.60
2019-02-27T18:05:32.203Z,11.60
2019-02-27T18:08:00.882Z,11.50
2019-02-27T18:10:29.507Z,11.50
2019-02-27T18:12:58.904Z,11.30
2019-02-27T18:15:28.532Z,11.30
2019-02-27T18:17:57.222Z,11.10
2019-02-27T18:20:25.873Z,10.80
2019-02-27T18:22:54.513Z,10.70
2019-02-27T18:25:23.157Z,10.70
2019-02-27T18:27:51.856Z,10.70
2019-02-27T18:30:24.227Z,10.60
2019-02-27T18:32:52.988Z,10.50
2019-02-27T18:35:21.685Z,10.50
2019-02-27T18:37:54.339Z,10.50
2019-02-27T18:40:21.530Z,10.30
2019-02-27T18:42:55.300Z,10.30
2019-02-27T18:45:25.594Z,10.30
2019-02-27T18:47:54.259Z,10.00
2019-02-27T18:50:24.860Z,9.80
2019-02-27T18:52:53.264Z,9.70
2019-02-27T18:55:21.836Z,9.60
2019-02-27T18:57:50.744Z,9.50
2019-02-27T19:00:29.479Z,9.60
2019-02-27T19:03:09.605Z,9.60
2019-02-27T19:05:41.774Z,9.70
2019-02-27T19:08:08.812Z,9.70
2019-02-27T19:10:41.337Z,9.60
2019-02-27T19:13:07.903Z,9.60
2019-02-27T19:15:36.624Z,9.50
2019-02-27T19:18:06.551Z,9.30
2019-02-27T19:20:43.876Z,9.30
2019-02-27T19:23:17.142Z,9.30
2019-02-27T19:25:43.360Z,9.30
2019-02-27T19:28:12.359Z,9.10
2019-02-27T19:30:41.875Z,9.10
2019-02-27T19:33:11.249Z,9.00
2019-02-27T19:35:39.926Z,8.90
2019-02-27T19:38:12.633Z,8.90
2019-02-27T19:40:39.333Z,8.90
2019-02-27T19:43:08.184Z,8.80
2019-02-27T19:45:36.815Z,8.60
2019-02-27T19:48:05.646Z,8.50
2019-02-27T19:50:34.344Z,8.30
2019-02-27T19:53:06.688Z,8.40
2019-02-27T19:55:33.441Z,8.10
2019-02-27T19:58:02.123Z,8.00
2019-02-27T20:00:34.990Z,7.90
2019-02-27T20:03:02.257Z,7.80
2019-02-27T20:05:30.942Z,7.80
2019-02-27T20:07:59.805Z,7.90
2019-02-27T20:10:31.053Z,8.00
2019-02-27T20:12:58.895Z,8.00
2019-02-27T20:15:27.786Z,7.90
2019-02-27T20:17:56.541Z,7.80
2019-02-27T20:20:25.643Z,7.70
2019-02-27T20:22:55.480Z,7.60
2019-02-27T20:25:26.245Z,7.50
2019-02-27T20:27:57.841Z,7.50
2019-02-27T20:30:25.785Z,7.50
2019-02-27T20:32:54.612Z,7.50
2019-02-27T20:35:23.441Z,7.50
2019-02-27T20:37:52.292Z,7.40
2019-02-27T20:40:21.188Z,7.50
2019-02-27T20:42:52.080Z,7.50
2019-02-27T20:45:21.356Z,7.30
2019-02-27T20:47:50.917Z,7.20
2019-02-27T20:50:34.919Z,7.20
2019-02-27T20:52:58.669Z,7.20
2019-02-27T20:55:27.268Z,7.20
2019-02-27T20:57:55.976Z,7.30
2019-02-27T21:00:24.969Z,7.20
2019-02-27T21:02:54.155Z,7.20
2019-02-27T21:05:23.558Z,7.20
2019-02-27T21:07:52.377Z,7.10
2019-02-27T21:10:29.080Z,7.00
2019-02-27T21:12:57.772Z,6.90
2019-02-27T21:15:29.397Z,6.90
2019-02-27T21:17:58.534Z,6.80
2019-02-27T21:20:27.423Z,6.80
2019-02-27T21:22:56.167Z,6.50
2019-02-27T21:25:24.801Z,6.50
2019-02-27T21:27:53.448Z,6.50
2019-02-27T21:30:23.416Z,6.50
2019-02-27T21:32:52.196Z,6.60
2019-02-27T21:35:20.896Z,6.50
2019-02-27T21:37:51.037Z,6.50
2019-02-27T21:40:19.900Z,6.60
2019-02-27T21:42:50.917Z,6.50
2019-02-27T21:45:22.757Z,6.50
2019-02-27T21:47:52.733Z,6.50
2019-02-27T21:50:24.609Z,6.60
2019-02-27T21:52:55.628Z,6.20
2019-02-27T21:55:23.603Z,6.20
2019-02-27T21:57:52.265Z,6.10
2019-02-27T22:00:26.165Z,6.10
2019-02-27T22:02:55.800Z,6.20
2019-02-27T22:05:24.517Z,5.90
2019-02-27T22:07:53.248Z,6.00
2019-02-27T22:10:22.035Z,6.00
2019-02-27T22:12:50.631Z,6.00
2019-02-27T22:15:29.676Z,6.00
2019-02-27T22:17:58.341Z,5.70
2019-02-27T22:20:27.084Z,5.50
2019-02-27T22:22:55.730Z,5.50
2019-02-27T22:25:27.439Z,5.40
2019-02-27T22:27:54.698Z,5.50
2019-02-27T22:30:23.927Z,5.70
2019-02-27T22:32:52.485Z,5.70
2019-02-27T22:35:21.088Z,5.70
2019-02-27T22:37:52.465Z,5.60
2019-02-27T22:40:21.395Z,5.50
2019-02-27T22:42:50.212Z,5.40
2019-02-27T22:45:19.929Z,5.40
2019-02-27T22:47:49.521Z,5.30
2019-02-27T22:50:19.358Z,5.40
2019-02-27T22:52:48.151Z,5.30
2019-02-27T22:55:16.749Z,5.40
2019-02-27T22:57:45.304Z,5.40
2019-02-27T23:00:51.262Z,5.40
2019-02-27T23:03:23.782Z,5.20
2019-02-27T23:05:53.132Z,5.30
2019-02-27T23:08:22.977Z,5.10
2019-02-27T23:10:52.065Z,5.00
2019-02-27T23:13:20.686Z,5.00
2019-02-27T23:15:49.495Z,5.10
2019-02-27T23:18:18.057Z,5.20
2019-02-27T23:20:46.648Z,5.20
2019-02-27T23:23:15.208Z,5.20
2019-02-27T23:25:46.551Z,5.20
2019-02-27T23:28:14.011Z,5.20
2019-02-27T23:30:42.680Z,5.00
2019-02-27T23:33:11.320Z,4.90
2019-02-27T23:35:39.975Z,5.00
2019-02-27T23:38:08.535Z,4.90
2019-02-27T23:40:37.148Z,4.70
2019-02-27T23:43:05.835Z,4.80
2019-02-27T23:45:34.432Z,4.90
2019-02-27T23:48:03.140Z,4.70
2019-02-27T23:50:31.728Z,4.70
2019-02-27T23:53:00.291Z,4.70
2019-02-27T23:55:28.893Z,4.70
2019-02-27T23:57:58.466Z,4.70
